sensor_id;sensor_type;location;lat;lon;timestamp;P1;durP1;ratioP1;P2;durP2;ratioP2
34711;SDS011;20941;42.408;25.634;2023-03-14T00:01:49;54.85;;;9.88;;
34711;SDS011;20941;42.408;25.634;2023-03-14T00:04:15;4.97;;;2.17;;
34711;SDS011;20941;42.408;25.634;2023-03-14T00:06:40;7.22;;;1.88;;
34711;SDS011;20941;42.408;25.634;2023-03-14T00:09:06;7.13;;;2.50;;
34711;SDS011;20941;42.408;25.634;2023-03-14T00:11:31;2.40;;;1.60;;
34711;SDS011;20941;42.408;25.634;2023-03-14T00:13:56;4.85;;;1.92;;
34711;SDS011;20941;42.408;25.634;2023-03-14T00:16:22;8.50;;;2.63;;
34711;SDS011;20941;42.408;25.634;2023-03-14T00:18:47;5.78;;;2.15;;
34711;SDS011;20941;42.408;25.634;2023-03-14T00:21:13;4.63;;;2.08;;
34711;SDS011;20941;42.408;25.634;2023-03-14T00:23:39;5.03;;;1.77;;
34711;SDS011;20941;42.408;25.634;2023-03-14T00:26:06;3.65;;;1.90;;
34711;SDS011;20941;42.408;25.634;2023-03-14T00:28:32;6.47;;;2.47;;
34711;SDS011;20941;42.408;25.634;2023-03-14T00:30:57;3.13;;;1.52;;
34711;SDS011;20941;42.408;25.634;2023-03-14T00:33:23;3.70;;;1.27;;
34711;SDS011;20941;42.408;25.634;2023-03-14T00:35:55;4.35;;;1.77;;
34711;SDS011;20941;42.408;25.634;2023-03-14T00:38:21;5.95;;;1.50;;
34711;SDS011;20941;42.408;25.634;2023-03-14T00:40:47;2.20;;;1.27;;
34711;SDS011;20941;42.408;25.634;2023-03-14T00:43:12;4.13;;;1.42;;
34711;SDS011;20941;42.408;25.634;2023-03-14T00:45:37;2.90;;;1.70;;
34711;SDS011;20941;42.408;25.634;2023-03-14T00:48:03;3.20;;;1.60;;
34711;SDS011;20941;42.408;25.634;2023-03-14T00:50:28;15.68;;;4.80;;
34711;SDS011;20941;42.408;25.634;2023-03-14T00:52:53;8.75;;;2.83;;
34711;SDS011;20941;42.408;25.634;2023-03-14T00:55:20;3.60;;;1.85;;
34711;SDS011;20941;42.408;25.634;2023-03-14T00:57:45;2.80;;;1.70;;
34711;SDS011;20941;42.408;25.634;2023-03-14T01:00:11;1.73;;;1.42;;
34711;SDS011;20941;42.408;25.634;2023-03-14T01:02:37;2.25;;;1.60;;
34711;SDS011;20941;42.408;25.634;2023-03-14T01:05:02;2.25;;;1.60;;
34711;SDS011;20941;42.408;25.634;2023-03-14T01:07:29;5.03;;;2.80;;
34711;SDS011;20941;42.408;25.634;2023-03-14T01:09:54;42.22;;;9.40;;
34711;SDS011;20941;42.408;25.634;2023-03-14T01:12:19;25.58;;;6.63;;
34711;SDS011;20941;42.408;25.634;2023-03-14T01:14:45;10.80;;;3.97;;
34711;SDS011;20941;42.408;25.634;2023-03-14T01:17:10;2.30;;;1.80;;
34711;SDS011;20941;42.408;25.634;2023-03-14T01:19:35;7.63;;;1.90;;
34711;SDS011;20941;42.408;25.634;2023-03-14T01:22:01;2.97;;;1.90;;
34711;SDS011;20941;42.408;25.634;2023-03-14T01:24:26;2.25;;;1.92;;
34711;SDS011;20941;42.408;25.634;2023-03-14T01:26:51;6.97;;;2.22;;
34711;SDS011;20941;42.408;25.634;2023-03-14T01:29:17;4.47;;;1.88;;
34711;SDS011;20941;42.408;25.634;2023-03-14T01:31:42;3.15;;;1.35;;
34711;SDS011;20941;42.408;25.634;2023-03-14T01:34:07;4.47;;;1.90;;
34711;SDS011;20941;42.408;25.634;2023-03-14T01:36:33;1.75;;;1.52;;
34711;SDS011;20941;42.408;25.634;2023-03-14T01:38:58;4.55;;;1.10;;
34711;SDS011;20941;42.408;25.634;2023-03-14T01:41:24;2.88;;;1.88;;
34711;SDS011;20941;42.408;25.634;2023-03-14T01:43:50;4.53;;;2.28;;
34711;SDS011;20941;42.408;25.634;2023-03-14T01:53:46;4.80;;;2.67;;
34711;SDS011;20941;42.408;25.634;2023-03-14T01:56:13;8.02;;;3.28;;
34711;SDS011;20941;42.408;25.634;2023-03-14T01:58:39;5.22;;;2.25;;
34711;SDS011;20941;42.408;25.634;2023-03-14T02:01:06;5.32;;;2.30;;
34711;SDS011;20941;42.408;25.634;2023-03-14T02:03:32;5.50;;;2.15;;
34711;SDS011;20941;42.408;25.634;2023-03-14T02:06:01;3.70;;;2.00;;
34711;SDS011;20941;42.408;25.634;2023-03-14T02:08:29;3.60;;;1.80;;
34711;SDS011;20941;42.408;25.634;2023-03-14T02:10:56;2.05;;;1.80;;
34711;SDS011;20941;42.408;25.634;2023-03-14T02:13:21;2.20;;;1.50;;
34711;SDS011;20941;42.408;25.634;2023-03-14T02:15:47;3.78;;;1.85;;
34711;SDS011;20941;42.408;25.634;2023-03-14T02:18:12;3.30;;;1.67;;
34711;SDS011;20941;42.408;25.634;2023-03-14T02:23:06;2.20;;;1.80;;
34711;SDS011;20941;42.408;25.634;2023-03-14T02:25:38;3.45;;;2.00;;
34711;SDS011;20941;42.408;25.634;2023-03-14T02:28:05;3.85;;;1.92;;
34711;SDS011;20941;42.408;25.634;2023-03-14T02:30:31;3.03;;;1.70;;
34711;SDS011;20941;42.408;25.634;2023-03-14T02:33:01;1.73;;;1.63;;
34711;SDS011;20941;42.408;25.634;2023-03-14T02:35:29;5.28;;;1.73;;
34711;SDS011;20941;42.408;25.634;2023-03-14T02:37:57;2.78;;;1.65;;
34711;SDS011;20941;42.408;25.634;2023-03-14T02:40:26;8.38;;;1.88;;
34711;SDS011;20941;42.408;25.634;2023-03-14T02:42:51;3.53;;;2.03;;
34711;SDS011;20941;42.408;25.634;2023-03-14T02:47:43;2.90;;;1.73;;
34711;SDS011;20941;42.408;25.634;2023-03-14T02:50:10;3.05;;;1.60;;
34711;SDS011;20941;42.408;25.634;2023-03-14T02:52:36;4.40;;;1.58;;
34711;SDS011;20941;42.408;25.634;2023-03-14T02:55:01;3.85;;;1.50;;
34711;SDS011;20941;42.408;25.634;2023-03-14T02:57:27;3.13;;;2.20;;
34711;SDS011;20941;42.408;25.634;2023-03-14T02:59:52;2.95;;;1.67;;
34711;SDS011;20941;42.408;25.634;2023-03-14T03:02:17;6.95;;;2.30;;
34711;SDS011;20941;42.408;25.634;2023-03-14T03:04:43;1.73;;;1.40;;
34711;SDS011;20941;42.408;25.634;2023-03-14T03:07:08;2.10;;;1.80;;
34711;SDS011;20941;42.408;25.634;2023-03-14T03:09:33;3.22;;;1.50;;
34711;SDS011;20941;42.408;25.634;2023-03-14T03:11:59;7.90;;;2.05;;
34711;SDS011;20941;42.408;25.634;2023-03-14T03:14:24;4.78;;;2.08;;
34711;SDS011;20941;42.408;25.634;2023-03-14T03:16:50;5.97;;;1.75;;
34711;SDS011;20941;42.408;25.634;2023-03-14T03:19:15;7.15;;;2.00;;
34711;SDS011;20941;42.408;25.634;2023-03-14T03:21:42;5.45;;;2.28;;
34711;SDS011;20941;42.408;25.634;2023-03-14T03:24:08;7.72;;;2.15;;
34711;SDS011;20941;42.408;25.634;2023-03-14T03:26:34;5.30;;;2.20;;
34711;SDS011;20941;42.408;25.634;2023-03-14T03:28:59;11.60;;;3.60;;
34711;SDS011;20941;42.408;25.634;2023-03-14T03:31:25;4.78;;;2.78;;
34711;SDS011;20941;42.408;25.634;2023-03-14T03:33:50;7.65;;;3.20;;
34711;SDS011;20941;42.408;25.634;2023-03-14T03:36:17;8.43;;;3.80;;
34711;SDS011;20941;42.408;25.634;2023-03-14T03:38:45;7.20;;;3.17;;
34711;SDS011;20941;42.408;25.634;2023-03-14T03:41:10;7.05;;;3.00;;
34711;SDS011;20941;42.408;25.634;2023-03-14T03:43:36;14.23;;;2.92;;
34711;SDS011;20941;42.408;25.634;2023-03-14T03:46:05;5.85;;;3.03;;
34711;SDS011;20941;42.408;25.634;2023-03-14T03:48:30;4.97;;;2.60;;
34711;SDS011;20941;42.408;25.634;2023-03-14T03:50:56;4.80;;;2.75;;
34711;SDS011;20941;42.408;25.634;2023-03-14T03:53:21;7.25;;;3.10;;
34711;SDS011;20941;42.408;25.634;2023-03-14T03:55:46;7.88;;;2.88;;
34711;SDS011;20941;42.408;25.634;2023-03-14T03:58:12;8.70;;;2.83;;
34711;SDS011;20941;42.408;25.634;2023-03-14T04:00:37;8.63;;;2.55;;
34711;SDS011;20941;42.408;25.634;2023-03-14T04:03:04;6.57;;;2.70;;
34711;SDS011;20941;42.408;25.634;2023-03-14T04:05:29;5.38;;;2.78;;
34711;SDS011;20941;42.408;25.634;2023-03-14T04:07:54;7.78;;;2.25;;
34711;SDS011;20941;42.408;25.634;2023-03-14T04:10:20;12.32;;;2.92;;
34711;SDS011;20941;42.408;25.634;2023-03-14T04:12:45;11.25;;;2.92;;
34711;SDS011;20941;42.408;25.634;2023-03-14T04:15:11;11.32;;;3.17;;
34711;SDS011;20941;42.408;25.634;2023-03-14T04:17:36;12.70;;;3.72;;
34711;SDS011;20941;42.408;25.634;2023-03-14T04:20:01;11.50;;;4.03;;
34711;SDS011;20941;42.408;25.634;2023-03-14T04:22:28;13.45;;;4.32;;
34711;SDS011;20941;42.408;25.634;2023-03-14T04:24:53;15.35;;;5.05;;
34711;SDS011;20941;42.408;25.634;2023-03-14T04:27:18;27.42;;;4.80;;
34711;SDS011;20941;42.408;25.634;2023-03-14T04:29:44;15.32;;;4.28;;
34711;SDS011;20941;42.408;25.634;2023-03-14T04:32:09;13.77;;;5.00;;
34711;SDS011;20941;42.408;25.634;2023-03-14T04:34:34;14.55;;;3.95;;
34711;SDS011;20941;42.408;25.634;2023-03-14T04:37:00;17.67;;;4.45;;
34711;SDS011;20941;42.408;25.634;2023-03-14T04:39:25;36.30;;;6.28;;
34711;SDS011;20941;42.408;25.634;2023-03-14T04:41:50;25.55;;;5.18;;
34711;SDS011;20941;42.408;25.634;2023-03-14T04:44:16;21.80;;;5.70;;
34711;SDS011;20941;42.408;25.634;2023-03-14T04:46:41;15.00;;;5.07;;
34711;SDS011;20941;42.408;25.634;2023-03-14T04:49:07;19.63;;;4.80;;
34711;SDS011;20941;42.408;25.634;2023-03-14T04:51:32;19.13;;;5.10;;
34711;SDS011;20941;42.408;25.634;2023-03-14T04:53:57;16.80;;;4.93;;
34711;SDS011;20941;42.408;25.634;2023-03-14T04:56:23;17.60;;;7.47;;
34711;SDS011;20941;42.408;25.634;2023-03-14T04:58:48;31.15;;;8.63;;
34711;SDS011;20941;42.408;25.634;2023-03-14T05:01:14;23.77;;;7.35;;
34711;SDS011;20941;42.408;25.634;2023-03-14T05:03:39;19.42;;;6.03;;
34711;SDS011;20941;42.408;25.634;2023-03-14T05:06:04;21.20;;;7.32;;
34711;SDS011;20941;42.408;25.634;2023-03-14T05:08:30;28.73;;;7.85;;
34711;SDS011;20941;42.408;25.634;2023-03-14T05:10:56;13.45;;;5.05;;
34711;SDS011;20941;42.408;25.634;2023-03-14T05:13:21;18.90;;;6.93;;
34711;SDS011;20941;42.408;25.634;2023-03-14T05:15:47;32.05;;;7.88;;
34711;SDS011;20941;42.408;25.634;2023-03-14T05:18:12;21.27;;;8.02;;
34711;SDS011;20941;42.408;25.634;2023-03-14T05:20:38;14.43;;;7.07;;
34711;SDS011;20941;42.408;25.634;2023-03-14T05:23:03;14.05;;;6.18;;
34711;SDS011;20941;42.408;25.634;2023-03-14T05:25:28;14.90;;;5.43;;
34711;SDS011;20941;42.408;25.634;2023-03-14T05:27:54;19.67;;;7.10;;
34711;SDS011;20941;42.408;25.634;2023-03-14T05:30:20;18.17;;;6.50;;
34711;SDS011;20941;42.408;25.634;2023-03-14T05:32:46;11.70;;;5.75;;
34711;SDS011;20941;42.408;25.634;2023-03-14T05:35:12;20.55;;;6.32;;
34711;SDS011;20941;42.408;25.634;2023-03-14T05:37:37;16.80;;;4.47;;
34711;SDS011;20941;42.408;25.634;2023-03-14T05:40:03;14.00;;;4.88;;
34711;SDS011;20941;42.408;25.634;2023-03-14T05:42:31;16.00;;;6.55;;
34711;SDS011;20941;42.408;25.634;2023-03-14T05:44:56;11.05;;;5.38;;
34711;SDS011;20941;42.408;25.634;2023-03-14T05:47:22;16.15;;;5.55;;
34711;SDS011;20941;42.408;25.634;2023-03-14T05:49:47;23.40;;;6.53;;
34711;SDS011;20941;42.408;25.634;2023-03-14T05:52:13;18.80;;;5.88;;
34711;SDS011;20941;42.408;25.634;2023-03-14T05:54:39;18.05;;;6.03;;
34711;SDS011;20941;42.408;25.634;2023-03-14T05:57:04;18.75;;;6.53;;
34711;SDS011;20941;42.408;25.634;2023-03-14T05:59:29;25.20;;;7.55;;
34711;SDS011;20941;42.408;25.634;2023-03-14T06:01:55;19.33;;;6.05;;
34711;SDS011;20941;42.408;25.634;2023-03-14T06:04:20;22.83;;;8.07;;
34711;SDS011;20941;42.408;25.634;2023-03-14T06:06:45;24.65;;;8.10;;
34711;SDS011;20941;42.408;25.634;2023-03-14T06:09:11;25.30;;;8.60;;
34711;SDS011;20941;42.408;25.634;2023-03-14T06:11:36;27.42;;;9.65;;
34711;SDS011;20941;42.408;25.634;2023-03-14T06:14:02;36.33;;;11.82;;
34711;SDS011;20941;42.408;25.634;2023-03-14T06:16:27;39.15;;;12.60;;
34711;SDS011;20941;42.408;25.634;2023-03-14T06:18:52;39.92;;;10.43;;
34711;SDS011;20941;42.408;25.634;2023-03-14T06:21:18;33.92;;;9.25;;
34711;SDS011;20941;42.408;25.634;2023-03-14T06:23:45;36.63;;;9.18;;
34711;SDS011;20941;42.408;25.634;2023-03-14T06:26:11;31.27;;;8.88;;
34711;SDS011;20941;42.408;25.634;2023-03-14T06:28:37;26.65;;;8.85;;
34711;SDS011;20941;42.408;25.634;2023-03-14T06:31:02;34.28;;;10.50;;
34711;SDS011;20941;42.408;25.634;2023-03-14T06:33:28;55.45;;;10.45;;
34711;SDS011;20941;42.408;25.634;2023-03-14T06:35:54;34.70;;;8.93;;
34711;SDS011;20941;42.408;25.634;2023-03-14T06:38:21;14.75;;;5.65;;
34711;SDS011;20941;42.408;25.634;2023-03-14T06:40:46;17.92;;;5.32;;
34711;SDS011;20941;42.408;25.634;2023-03-14T06:43:11;16.85;;;4.18;;
34711;SDS011;20941;42.408;25.634;2023-03-14T06:45:37;16.63;;;5.32;;
34711;SDS011;20941;42.408;25.634;2023-03-14T06:48:05;8.98;;;4.40;;
34711;SDS011;20941;42.408;25.634;2023-03-14T06:50:32;12.82;;;4.38;;
34711;SDS011;20941;42.408;25.634;2023-03-14T06:52:57;33.33;;;7.18;;
34711;SDS011;20941;42.408;25.634;2023-03-14T06:55:22;24.35;;;7.47;;
34711;SDS011;20941;42.408;25.634;2023-03-14T06:57:48;27.25;;;6.75;;
34711;SDS011;20941;42.408;25.634;2023-03-14T07:00:13;38.10;;;8.50;;
34711;SDS011;20941;42.408;25.634;2023-03-14T07:02:39;52.60;;;11.32;;
34711;SDS011;20941;42.408;25.634;2023-03-14T07:05:04;24.10;;;9.00;;
34711;SDS011;20941;42.408;25.634;2023-03-14T07:07:30;22.83;;;9.77;;
34711;SDS011;20941;42.408;25.634;2023-03-14T07:09:55;24.02;;;6.75;;
34711;SDS011;20941;42.408;25.634;2023-03-14T07:12:21;19.52;;;5.68;;
34711;SDS011;20941;42.408;25.634;2023-03-14T07:14:46;12.45;;;4.78;;
34711;SDS011;20941;42.408;25.634;2023-03-14T07:17:12;11.57;;;5.10;;
34711;SDS011;20941;42.408;25.634;2023-03-14T07:19:37;10.18;;;3.50;;
34711;SDS011;20941;42.408;25.634;2023-03-14T07:22:03;18.05;;;4.88;;
34711;SDS011;20941;42.408;25.634;2023-03-14T07:24:29;6.97;;;3.67;;
34711;SDS011;20941;42.408;25.634;2023-03-14T07:26:54;13.15;;;4.50;;
34711;SDS011;20941;42.408;25.634;2023-03-14T07:29:19;18.00;;;4.07;;
34711;SDS011;20941;42.408;25.634;2023-03-14T07:31:45;10.13;;;4.28;;
34711;SDS011;20941;42.408;25.634;2023-03-14T07:34:10;14.30;;;2.88;;
34711;SDS011;20941;42.408;25.634;2023-03-14T07:36:35;28.40;;;4.30;;
34711;SDS011;20941;42.408;25.634;2023-03-14T07:39:01;5.25;;;2.60;;
34711;SDS011;20941;42.408;25.634;2023-03-14T07:41:26;5.70;;;3.00;;
34711;SDS011;20941;42.408;25.634;2023-03-14T07:43:52;6.07;;;2.83;;
34711;SDS011;20941;42.408;25.634;2023-03-14T07:46:17;17.08;;;4.40;;
34711;SDS011;20941;42.408;25.634;2023-03-14T07:48:43;8.90;;;3.42;;
34711;SDS011;20941;42.408;25.634;2023-03-14T07:51:08;16.52;;;4.93;;
34711;SDS011;20941;42.408;25.634;2023-03-14T07:53:34;15.25;;;5.68;;
34711;SDS011;20941;42.408;25.634;2023-03-14T07:55:59;11.52;;;3.10;;
34711;SDS011;20941;42.408;25.634;2023-03-14T07:58:24;9.77;;;2.88;;
34711;SDS011;20941;42.408;25.634;2023-03-14T08:00:50;18.40;;;4.25;;
34711;SDS011;20941;42.408;25.634;2023-03-14T08:03:16;14.07;;;6.40;;
34711;SDS011;20941;42.408;25.634;2023-03-14T08:05:41;3.67;;;3.03;;
34711;SDS011;20941;42.408;25.634;2023-03-14T08:08:07;5.57;;;2.70;;
34711;SDS011;20941;42.408;25.634;2023-03-14T08:10:32;14.65;;;3.70;;
34711;SDS011;20941;42.408;25.634;2023-03-14T08:12:58;13.65;;;4.45;;
34711;SDS011;20941;42.408;25.634;2023-03-14T08:15:24;11.60;;;3.65;;
34711;SDS011;20941;42.408;25.634;2023-03-14T08:17:50;10.98;;;2.95;;
34711;SDS011;20941;42.408;25.634;2023-03-14T08:20:23;9.95;;;3.05;;
34711;SDS011;20941;42.408;25.634;2023-03-14T08:22:48;17.55;;;3.58;;
34711;SDS011;20941;42.408;25.634;2023-03-14T08:25:14;6.22;;;3.08;;
34711;SDS011;20941;42.408;25.634;2023-03-14T08:27:40;4.57;;;2.95;;
34711;SDS011;20941;42.408;25.634;2023-03-14T08:30:07;8.48;;;3.10;;
34711;SDS011;20941;42.408;25.634;2023-03-14T08:32:33;17.45;;;5.10;;
34711;SDS011;20941;42.408;25.634;2023-03-14T08:34:58;11.85;;;3.70;;
34711;SDS011;20941;42.408;25.634;2023-03-14T08:37:24;6.07;;;2.78;;
34711;SDS011;20941;42.408;25.634;2023-03-14T08:39:50;11.18;;;4.05;;
34711;SDS011;20941;42.408;25.634;2023-03-14T08:42:15;16.42;;;7.10;;
34711;SDS011;20941;42.408;25.634;2023-03-14T08:44:41;11.50;;;4.03;;
34711;SDS011;20941;42.408;25.634;2023-03-14T08:47:06;11.73;;;4.43;;
34711;SDS011;20941;42.408;25.634;2023-03-14T08:49:32;10.55;;;3.60;;
34711;SDS011;20941;42.408;25.634;2023-03-14T08:51:57;10.15;;;3.33;;
34711;SDS011;20941;42.408;25.634;2023-03-14T08:54:23;9.88;;;3.72;;
34711;SDS011;20941;42.408;25.634;2023-03-14T08:56:49;8.07;;;3.10;;
34711;SDS011;20941;42.408;25.634;2023-03-14T08:59:14;10.60;;;3.75;;
34711;SDS011;20941;42.408;25.634;2023-03-14T09:01:39;10.07;;;3.35;;
34711;SDS011;20941;42.408;25.634;2023-03-14T09:04:05;7.60;;;2.85;;
34711;SDS011;20941;42.408;25.634;2023-03-14T09:06:31;12.05;;;6.43;;
34711;SDS011;20941;42.408;25.634;2023-03-14T09:08:57;12.18;;;4.00;;
34711;SDS011;20941;42.408;25.634;2023-03-14T09:11:22;5.40;;;2.50;;
34711;SDS011;20941;42.408;25.634;2023-03-14T09:13:48;17.13;;;3.97;;
34711;SDS011;20941;42.408;25.634;2023-03-14T09:16:13;14.25;;;4.68;;
34711;SDS011;20941;42.408;25.634;2023-03-14T09:18:39;9.50;;;3.67;;
34711;SDS011;20941;42.408;25.634;2023-03-14T09:21:04;12.57;;;3.75;;
34711;SDS011;20941;42.408;25.634;2023-03-14T09:23:30;12.32;;;2.85;;
34711;SDS011;20941;42.408;25.634;2023-03-14T09:25:56;9.98;;;2.88;;
34711;SDS011;20941;42.408;25.634;2023-03-14T09:28:21;3.63;;;2.67;;
34711;SDS011;20941;42.408;25.634;2023-03-14T09:30:47;9.80;;;4.05;;
34711;SDS011;20941;42.408;25.634;2023-03-14T09:33:12;13.43;;;3.42;;
34711;SDS011;20941;42.408;25.634;2023-03-14T09:35:37;14.27;;;3.40;;
34711;SDS011;20941;42.408;25.634;2023-03-14T09:38:03;11.25;;;3.80;;
34711;SDS011;20941;42.408;25.634;2023-03-14T09:40:31;11.05;;;2.80;;
34711;SDS011;20941;42.408;25.634;2023-03-14T09:42:57;12.80;;;3.60;;
34711;SDS011;20941;42.408;25.634;2023-03-14T09:45:34;5.45;;;2.10;;
34711;SDS011;20941;42.408;25.634;2023-03-14T09:48:01;4.60;;;2.35;;
34711;SDS011;20941;42.408;25.634;2023-03-14T09:50:33;9.43;;;3.17;;
34711;SDS011;20941;42.408;25.634;2023-03-14T09:53:02;8.70;;;3.55;;
34711;SDS011;20941;42.408;25.634;2023-03-14T09:55:28;10.32;;;3.40;;
34711;SDS011;20941;42.408;25.634;2023-03-14T09:57:58;10.25;;;2.95;;
34711;SDS011;20941;42.408;25.634;2023-03-14T10:00:27;6.53;;;2.72;;
34711;SDS011;20941;42.408;25.634;2023-03-14T10:03:00;7.60;;;2.80;;
34711;SDS011;20941;42.408;25.634;2023-03-14T10:05:27;3.72;;;1.92;;
34711;SDS011;20941;42.408;25.634;2023-03-14T10:07:54;24.70;;;3.90;;
34711;SDS011;20941;42.408;25.634;2023-03-14T10:10:20;3.13;;;2.10;;
34711;SDS011;20941;42.408;25.634;2023-03-14T10:12:47;6.72;;;2.50;;
34711;SDS011;20941;42.408;25.634;2023-03-14T10:15:13;5.25;;;2.60;;
34711;SDS011;20941;42.408;25.634;2023-03-14T10:17:49;3.53;;;2.42;;
34711;SDS011;20941;42.408;25.634;2023-03-14T10:20:31;8.90;;;2.80;;
34711;SDS011;20941;42.408;25.634;2023-03-14T10:23:00;12.73;;;3.28;;
34711;SDS011;20941;42.408;25.634;2023-03-14T10:25:28;3.83;;;2.05;;
34711;SDS011;20941;42.408;25.634;2023-03-14T10:27:54;4.40;;;2.50;;
34711;SDS011;20941;42.408;25.634;2023-03-14T10:30:53;6.63;;;3.03;;
34711;SDS011;20941;42.408;25.634;2023-03-14T10:33:18;7.50;;;2.70;;
34711;SDS011;20941;42.408;25.634;2023-03-14T10:35:45;6.90;;;2.97;;
34711;SDS011;20941;42.408;25.634;2023-03-14T10:38:12;4.95;;;2.97;;
34711;SDS011;20941;42.408;25.634;2023-03-14T10:40:39;3.88;;;2.33;;
34711;SDS011;20941;42.408;25.634;2023-03-14T10:43:06;16.42;;;3.20;;
34711;SDS011;20941;42.408;25.634;2023-03-14T10:48:18;16.17;;;4.85;;
34711;SDS011;20941;42.408;25.634;2023-03-14T10:50:55;7.78;;;3.55;;
34711;SDS011;20941;42.408;25.634;2023-03-14T10:53:20;9.68;;;2.38;;
34711;SDS011;20941;42.408;25.634;2023-03-14T10:55:46;9.70;;;3.13;;
34711;SDS011;20941;42.408;25.634;2023-03-14T10:58:18;9.02;;;3.05;;
34711;SDS011;20941;42.408;25.634;2023-03-14T11:00:45;8.75;;;3.28;;
34711;SDS011;20941;42.408;25.634;2023-03-14T11:03:12;6.63;;;2.60;;
34711;SDS011;20941;42.408;25.634;2023-03-14T11:08:09;10.25;;;4.00;;
34711;SDS011;20941;42.408;25.634;2023-03-14T11:10:37;6.80;;;3.88;;
34711;SDS011;20941;42.408;25.634;2023-03-14T11:21:05;12.70;;;4.13;;
34711;SDS011;20941;42.408;25.634;2023-03-14T11:28:40;6.50;;;2.90;;
34711;SDS011;20941;42.408;25.634;2023-03-14T11:31:29;18.52;;;4.10;;
34711;SDS011;20941;42.408;25.634;2023-03-14T11:36:32;7.35;;;3.42;;
34711;SDS011;20941;42.408;25.634;2023-03-14T11:39:00;5.70;;;3.65;;
34711;SDS011;20941;42.408;25.634;2023-03-14T11:41:28;10.18;;;3.20;;
34711;SDS011;20941;42.408;25.634;2023-03-14T11:43:55;11.60;;;3.50;;
34711;SDS011;20941;42.408;25.634;2023-03-14T11:46:25;5.57;;;2.80;;
34711;SDS011;20941;42.408;25.634;2023-03-14T11:49:14;4.03;;;2.70;;
34711;SDS011;20941;42.408;25.634;2023-03-14T11:51:41;8.10;;;2.85;;
34711;SDS011;20941;42.408;25.634;2023-03-14T11:56:35;9.02;;;3.95;;
34711;SDS011;20941;42.408;25.634;2023-03-14T11:59:07;9.50;;;2.83;;
34711;SDS011;20941;42.408;25.634;2023-03-14T12:01:44;13.65;;;4.38;;
34711;SDS011;20941;42.408;25.634;2023-03-14T12:04:15;8.65;;;3.58;;
34711;SDS011;20941;42.408;25.634;2023-03-14T12:06:49;7.07;;;2.92;;
34711;SDS011;20941;42.408;25.634;2023-03-14T12:09:15;14.82;;;5.50;;
34711;SDS011;20941;42.408;25.634;2023-03-14T12:14:22;11.02;;;3.97;;
34711;SDS011;20941;42.408;25.634;2023-03-14T12:16:48;7.00;;;3.70;;
34711;SDS011;20941;42.408;25.634;2023-03-14T12:24:17;11.32;;;3.42;;
34711;SDS011;20941;42.408;25.634;2023-03-14T12:26:45;4.18;;;2.58;;
34711;SDS011;20941;42.408;25.634;2023-03-14T12:29:14;7.97;;;3.20;;
34711;SDS011;20941;42.408;25.634;2023-03-14T12:31:45;8.48;;;3.80;;
34711;SDS011;20941;42.408;25.634;2023-03-14T12:41:44;6.47;;;2.40;;
34711;SDS011;20941;42.408;25.634;2023-03-14T12:46:56;18.65;;;4.47;;
34711;SDS011;20941;42.408;25.634;2023-03-14T12:49:23;7.95;;;2.60;;
34711;SDS011;20941;42.408;25.634;2023-03-14T12:51:58;4.88;;;1.85;;
34711;SDS011;20941;42.408;25.634;2023-03-14T12:59:42;8.15;;;3.13;;
34711;SDS011;20941;42.408;25.634;2023-03-14T13:02:14;7.22;;;2.10;;
34711;SDS011;20941;42.408;25.634;2023-03-14T13:07:11;2.40;;;1.65;;
34711;SDS011;20941;42.408;25.634;2023-03-14T13:09:49;4.80;;;1.95;;
34711;SDS011;20941;42.408;25.634;2023-03-14T13:12:16;8.55;;;2.78;;
34711;SDS011;20941;42.408;25.634;2023-03-14T13:14:43;4.35;;;2.33;;
34711;SDS011;20941;42.408;25.634;2023-03-14T13:17:13;4.78;;;3.40;;
34711;SDS011;20941;42.408;25.634;2023-03-14T13:19:38;4.68;;;2.03;;
34711;SDS011;20941;42.408;25.634;2023-03-14T13:22:05;13.02;;;2.28;;
34711;SDS011;20941;42.408;25.634;2023-03-14T13:24:33;6.82;;;2.67;;
34711;SDS011;20941;42.408;25.634;2023-03-14T13:26:59;17.75;;;3.63;;
34711;SDS011;20941;42.408;25.634;2023-03-14T13:29:28;3.90;;;1.67;;
34711;SDS011;20941;42.408;25.634;2023-03-14T13:31:56;8.55;;;2.00;;
34711;SDS011;20941;42.408;25.634;2023-03-14T13:34:28;7.88;;;2.25;;
34711;SDS011;20941;42.408;25.634;2023-03-14T13:36:55;9.25;;;2.15;;
34711;SDS011;20941;42.408;25.634;2023-03-14T13:39:22;6.25;;;2.50;;
34711;SDS011;20941;42.408;25.634;2023-03-14T13:41:50;3.65;;;2.28;;
34711;SDS011;20941;42.408;25.634;2023-03-14T13:44:16;5.78;;;2.25;;
34711;SDS011;20941;42.408;25.634;2023-03-14T13:46:42;5.38;;;1.67;;
34711;SDS011;20941;42.408;25.634;2023-03-14T13:49:12;3.25;;;1.75;;
34711;SDS011;20941;42.408;25.634;2023-03-14T13:51:43;2.67;;;1.60;;
34711;SDS011;20941;42.408;25.634;2023-03-14T13:54:18;8.02;;;2.47;;
34711;SDS011;20941;42.408;25.634;2023-03-14T13:56:44;6.18;;;2.25;;
34711;SDS011;20941;42.408;25.634;2023-03-14T14:01:47;11.45;;;2.60;;
34711;SDS011;20941;42.408;25.634;2023-03-14T14:04:18;5.28;;;1.85;;
34711;SDS011;20941;42.408;25.634;2023-03-14T14:06:45;5.53;;;1.85;;
34711;SDS011;20941;42.408;25.634;2023-03-14T14:09:13;7.10;;;2.55;;
34711;SDS011;20941;42.408;25.634;2023-03-14T14:11:43;9.75;;;2.70;;
34711;SDS011;20941;42.408;25.634;2023-03-14T14:14:15;8.30;;;3.05;;
34711;SDS011;20941;42.408;25.634;2023-03-14T14:16:42;10.38;;;2.65;;
34711;SDS011;20941;42.408;25.634;2023-03-14T14:19:08;8.55;;;3.10;;
34711;SDS011;20941;42.408;25.634;2023-03-14T14:21:34;3.50;;;2.08;;
34711;SDS011;20941;42.408;25.634;2023-03-14T14:23:59;11.48;;;2.08;;
34711;SDS011;20941;42.408;25.634;2023-03-14T14:26:25;7.20;;;2.58;;
34711;SDS011;20941;42.408;25.634;2023-03-14T14:29:04;12.93;;;2.78;;
34711;SDS011;20941;42.408;25.634;2023-03-14T14:31:29;7.47;;;2.63;;
34711;SDS011;20941;42.408;25.634;2023-03-14T14:34:04;17.35;;;3.60;;
34711;SDS011;20941;42.408;25.634;2023-03-14T14:38:59;17.52;;;3.40;;
34711;SDS011;20941;42.408;25.634;2023-03-14T14:41:29;22.20;;;3.67;;
34711;SDS011;20941;42.408;25.634;2023-03-14T14:43:55;10.35;;;2.33;;
34711;SDS011;20941;42.408;25.634;2023-03-14T14:46:21;7.03;;;2.33;;
34711;SDS011;20941;42.408;25.634;2023-03-14T14:48:46;4.43;;;2.13;;
34711;SDS011;20941;42.408;25.634;2023-03-14T14:51:22;19.83;;;2.70;;
34711;SDS011;20941;42.408;25.634;2023-03-14T14:53:48;20.58;;;4.63;;
34711;SDS011;20941;42.408;25.634;2023-03-14T14:58:43;7.53;;;2.30;;
34711;SDS011;20941;42.408;25.634;2023-03-14T15:01:19;14.25;;;3.42;;
34711;SDS011;20941;42.408;25.634;2023-03-14T15:03:46;11.05;;;2.92;;
34711;SDS011;20941;42.408;25.634;2023-03-14T15:06:12;8.05;;;2.58;;
34711;SDS011;20941;42.408;25.634;2023-03-14T15:08:38;15.73;;;3.90;;
34711;SDS011;20941;42.408;25.634;2023-03-14T15:11:03;14.60;;;3.30;;
34711;SDS011;20941;42.408;25.634;2023-03-14T15:13:29;5.03;;;2.10;;
34711;SDS011;20941;42.408;25.634;2023-03-14T15:15:55;6.68;;;2.85;;
34711;SDS011;20941;42.408;25.634;2023-03-14T15:18:21;8.68;;;2.38;;
34711;SDS011;20941;42.408;25.634;2023-03-14T15:20:47;13.75;;;3.35;;
34711;SDS011;20941;42.408;25.634;2023-03-14T15:23:13;9.18;;;2.80;;
34711;SDS011;20941;42.408;25.634;2023-03-14T15:25:39;5.78;;;2.60;;
34711;SDS011;20941;42.408;25.634;2023-03-14T15:28:26;13.00;;;3.22;;
34711;SDS011;20941;42.408;25.634;2023-03-14T15:30:57;6.70;;;2.97;;
34711;SDS011;20941;42.408;25.634;2023-03-14T15:33:23;6.32;;;2.13;;
34711;SDS011;20941;42.408;25.634;2023-03-14T15:35:49;14.60;;;2.20;;